Time,TemperatureF,DewpointF,PressureIn,WindDirection,WindDirectionDegrees,WindSpeedMPH,WindSpeedGustMPH,Humidity,HourlyPrecipIn,Conditions,Clouds,dailyrainin,SoftwareType,DateUTC
2013-05-01 00:01:00,68.1,61.7,29.79,ESE,121,0.0,0.0,80,0.00,,---,0.00,VWS V14.01,2013-05-01 05:01:00,
2013-05-01 00:06:00,67.9,61.5,29.80,ESE,121,0.0,0.0,80,0.00,,---,0.00,VWS V14.01,2013-05-01 05:06:00,
2013-05-01 00:11:00,67.8,61.8,29.80,ESE,121,0.0,0.0,81,0.00,,---,0.00,VWS V14.01,2013-05-01 05:11:00,
2013-05-01 00:16:00,67.6,61.6,29.80,ESE,121,0.0,0.0,81,0.00,,---,0.00,VWS V14.01,2013-05-01 05:16:00,
2013-05-01 00:21:00,67.1,61.4,29.80,ESE,121,0.0,0.0,82,0.00,,---,0.00,VWS V14.01,2013-05-01 05:21:00,
2013-05-01 00:26:00,66.8,60.8,29.80,ESE,121,0.0,0.0,81,0.00,,---,0.00,VWS V14.01,2013-05-01 05:26:00,
2013-05-01 00:31:00,66.3,60.3,29.80,ESE,121,0.0,0.0,81,0.00,,---,0.00,VWS V14.01,2013-05-01 05:31:00,
2013-05-01 00:36:00,66.0,60.3,29.80,ESE,121,0.0,0.0,82,0.00,,---,0.00,VWS V14.01,2013-05-01 05:36:00,
2013-05-01 00:41:00,65.6,60.3,29.80,ESE,121,0.0,0.0,83,0.00,,---,0.00,VWS V14.01,2013-05-01 05:41:00,
2013-05-01 00:46:00,65.3,60.0,29.80,ESE,121,0.0,0.0,83,0.00,,---,0.00,VWS V14.01,2013-05-01 05:46:00,
2013-05-01 00:51:00,64.8,59.5,29.80,ESE,121,0.0,0.0,83,0.00,,---,0.00,VWS V14.01,2013-05-01 05:51:00,
2013-05-01 00:56:00,64.3,59.0,29.80,ESE,121,0.0,0.0,83,0.00,,---,0.00,VWS V14.01,2013-05-01 05:56:00,
2013-05-01 01:01:00,64.0,58.7,29.81,ESE,121,0.0,0.0,83,0.00,,---,0.00,VWS V14.01,2013-05-01 06:01:00,
2013-05-01 01:06:00,63.5,58.6,29.81,ESE,121,0.0,0.0,84,0.00,,---,0.00,VWS V14.01,2013-05-01 06:06:00,
2013-05-01 01:11:00,63.1,58.2,29.81,ESE,121,0.0,0.0,84,0.00,,---,0.00,VWS V14.01,2013-05-01 06:11:00,
2013-05-01 01:16:00,62.7,58.1,29.81,ESE,121,0.0,0.0,85,0.00,,---,0.00,VWS V14.01,2013-05-01 06:16:00,
2013-05-01 01:21:00,62.6,58.0,29.80,ESE,121,0.0,0.0,85,0.00,,---,0.00,VWS V14.01,2013-05-01 06:21:00,
2013-05-01 01:26:00,62.1,57.9,29.80,ESE,121,0.0,0.0,86,0.00,,---,0.00,VWS V14.01,2013-05-01 06:26:00,
2013-05-01 01:31:00,61.8,57.9,29.80,ESE,121,0.0,0.0,87,0.00,,---,0.00,VWS V14.01,2013-05-01 06:31:00,
2013-05-01 01:36:00,61.5,57.6,29.80,ESE,121,0.0,0.0,87,0.00,,---,0.00,VWS V14.01,2013-05-01 06:36:00,
2013-05-01 01:41:00,61.3,57.7,29.80,ESE,121,0.0,0.0,88,0.00,,---,0.00,VWS V14.01,2013-05-01 06:41:00,
2013-05-01 01:46:00,61.0,57.4,29.80,ESE,121,0.0,0.0,88,0.00,,---,0.00,VWS V14.01,2013-05-01 06:46:00,
2013-05-01 01:51:00,61.0,57.7,29.80,ESE,121,0.0,0.0,89,0.00,,---,0.00,VWS V14.01,2013-05-01 06:51:00,
2013-05-01 01:56:00,60.9,58.0,29.80,ESE,121,0.0,0.0,90,0.00,,---,0.00,VWS V14.01,2013-05-01 06:56:00,
2013-05-01 02:01:00,60.9,58.0,29.80,ESE,121,0.0,0.0,90,0.00,,---,0.00,VWS V14.01,2013-05-01 07:01:00,
2013-05-01 02:06:00,60.9,58.0,29.81,ESE,121,0.0,0.0,90,0.00,,---,0.00,VWS V14.01,2013-05-01 07:06:00,
2013-05-01 02:11:00,60.9,58.0,29.81,ESE,121,0.0,0.0,90,0.00,,---,0.00,VWS V14.01,2013-05-01 07:11:00,
2013-05-01 02:16:00,60.4,57.5,29.81,ESE,121,0.0,0.0,90,0.00,,---,0.00,VWS V14.01,2013-05-01 07:16:00,
2013-05-01 02:21:00,60.1,57.2,29.81,ESE,121,0.0,0.0,90,0.00,,---,0.00,VWS V14.01,2013-05-01 07:21:00,
2013-05-01 02:26:00,59.8,56.9,29.81,ESE,121,0.0,0.0,90,0.00,,---,0.00,VWS V14.01,2013-05-01 07:26:00,
2013-05-01 02:31:00,59.8,57.2,29.81,ESE,121,0.0,0.0,91,0.00,,---,0.00,VWS V14.01,2013-05-01 07:31:00,
2013-05-01 02:36:00,59.5,56.9,29.81,ESE,121,0.0,0.0,91,0.00,,---,0.00,VWS V14.01,2013-05-01 07:36:00,
2013-05-01 02:41:00,59.3,56.7,29.81,ESE,121,0.0,0.0,91,0.00,,---,0.00,VWS V14.01,2013-05-01 07:41:00,
2013-05-01 02:46:00,59.3,56.7,29.81,ESE,121,0.0,0.0,91,0.00,,---,0.00,VWS V14.01,2013-05-01 07:46:00,
2013-05-01 02:51:00,58.9,56.0,29.81,ESE,121,0.0,0.0,90,0.00,,---,0.00,VWS V14.01,2013-05-01 07:51:00,
2013-05-01 02:56:00,58.7,56.1,29.81,ESE,121,0.0,0.0,91,0.00,,---,0.00,VWS V14.01,2013-05-01 07:56:00,
2013-05-01 03:01:00,58.4,55.8,29.81,ESE,121,0.0,0.0,91,0.00,,---,0.00,VWS V14.01,2013-05-01 08:01:00,
2013-05-01 03:06:00,58.3,55.7,29.81,ESE,121,0.0,0.0,91,0.00,,---,0.00,VWS V14.01,2013-05-01 08:06:00,
2013-05-01 03:11:00,58.1,55.5,29.81,ESE,121,0.0,0.0,91,0.00,,---,0.00,VWS V14.01,2013-05-01 08:11:00,
2013-05-01 03:16:00,58.0,55.4,29.81,ESE,121,0.0,0.0,91,0.00,,---,0.00,VWS V14.01,2013-05-01 08:16:00,
2013-05-01 03:21:00,57.8,55.2,29.81,ESE,121,0.0,0.0,91,0.00,,---,0.00,VWS V14.01,2013-05-01 08:21:00,
2013-05-01 03:26:00,57.6,55.0,29.81,ESE,121,0.0,0.0,91,0.00,,---,0.00,VWS V14.01,2013-05-01 08:26:00,
2013-05-01 03:31:00,57.5,54.9,29.81,ESE,121,0.0,0.0,91,0.00,,---,0.00,VWS V14.01,2013-05-01 08:31:00,
2013-05-01 03:36:00,57.5,55.2,29.81,ESE,121,0.0,0.0,92,0.00,,---,0.00,VWS V14.01,2013-05-01 08:36:00,
2013-05-01 03:41:00,57.3,55.0,29.81,ESE,121,0.0,0.0,92,0.00,,---,0.00,VWS V14.01,2013-05-01 08:41:00,
2013-05-01 03:46:00,57.3,55.0,29.81,ESE,121,0.0,0.0,92,0.00,,---,0.00,VWS V14.01,2013-05-01 08:46:00,
2013-05-01 03:51:00,57.3,55.0,29.81,ESE,121,0.0,0.0,92,0.00,,---,0.00,VWS V14.01,2013-05-01 08:51:00,
2013-05-01 03:56:00,57.5,55.2,29.81,ESE,121,0.0,0.0,92,0.00,,---,0.00,VWS V14.01,2013-05-01 08:56:00,
2013-05-01 04:01:00,57.6,55.6,29.81,ESE,121,0.0,0.0,93,0.00,,---,0.00,VWS V14.01,2013-05-01 09:01:00,
2013-05-01 04:06:00,57.8,55.8,29.81,ESE,121,0.0,0.0,93,0.00,,---,0.00,VWS V14.01,2013-05-01 09:06:00,
2013-05-01 04:11:00,58.1,56.4,29.81,ESE,121,0.0,0.0,94,0.00,,---,0.00,VWS V14.01,2013-05-01 09:11:00,
2013-05-01 04:16:00,58.3,56.3,29.81,ESE,121,0.0,0.0,93,0.00,,---,0.00,VWS V14.01,2013-05-01 09:16:00,
2013-05-01 04:21:00,58.3,56.3,29.81,ESE,121,0.0,0.0,93,0.00,,---,0.00,VWS V14.01,2013-05-01 09:21:00,
2013-05-01 04:26:00,58.1,56.1,29.81,ESE,121,0.0,0.0,93,0.00,,---,0.00,VWS V14.01,2013-05-01 09:26:00,
2013-05-01 04:31:00,58.1,56.1,29.81,ESE,121,0.0,0.0,93,0.00,,---,0.00,VWS V14.01,2013-05-01 09:31:00,
2013-05-01 04:36:00,58.1,56.1,29.81,ESE,121,0.0,0.0,93,0.00,,---,0.00,VWS V14.01,2013-05-01 09:36:00,
2013-05-01 04:41:00,58.1,56.1,29.81,ESE,121,0.0,0.0,93,0.00,,---,0.00,VWS V14.01,2013-05-01 09:41:00,
2013-05-01 04:46:00,58.0,56.0,29.82,ESE,121,0.0,0.0,93,0.00,,---,0.00,VWS V14.01,2013-05-01 09:46:00,
2013-05-01 04:51:00,58.0,56.3,29.82,ESE,121,0.0,0.0,94,0.00,,---,0.00,VWS V14.01,2013-05-01 09:51:00,
2013-05-01 04:56:00,58.0,56.0,29.82,ESE,121,0.0,0.0,93,0.00,,---,0.00,VWS V14.01,2013-05-01 09:56:00,
2013-05-01 05:01:00,58.0,56.0,29.82,ESE,121,0.0,0.0,93,0.00,,---,0.00,VWS V14.01,2013-05-01 10:01:00,
2013-05-01 05:06:00,57.8,55.8,29.82,ESE,121,0.0,0.0,93,0.00,,---,0.00,VWS V14.01,2013-05-01 10:06:00,
2013-05-01 05:11:00,57.6,55.6,29.82,ESE,121,0.0,0.0,93,0.00,,---,0.00,VWS V14.01,2013-05-01 10:11:00,
2013-05-01 05:16:00,57.6,55.9,29.82,ESE,121,0.0,0.0,94,0.00,,---,0.00,VWS V14.01,2013-05-01 10:16:00,
2013-05-01 05:21:00,57.8,56.1,29.83,ESE,121,0.0,0.0,94,0.00,,---,0.00,VWS V14.01,2013-05-01 10:21:00,
2013-05-01 05:26:00,58.0,56.3,29.83,ESE,121,0.0,0.0,94,0.00,,---,0.00,VWS V14.01,2013-05-01 10:26:00,
2013-05-01 05:31:00,58.0,56.3,29.83,ESE,121,0.0,0.0,94,0.00,,---,0.00,VWS V14.01,2013-05-01 10:31:00,
2013-05-01 05:36:00,58.0,56.3,29.83,ESE,121,0.0,0.0,94,0.00,,---,0.00,VWS V14.01,2013-05-01 10:36:00,
2013-05-01 05:41:00,58.1,56.7,29.83,ESE,121,0.0,0.0,95,0.00,,---,0.00,VWS V14.01,2013-05-01 10:41:00,
2013-05-01 05:46:00,58.1,56.7,29.83,ESE,121,0.0,0.0,95,0.00,,---,0.00,VWS V14.01,2013-05-01 10:46:00,
2013-05-01 05:51:00,58.6,57.2,29.83,ESE,121,0.0,0.0,95,0.00,,---,0.00,VWS V14.01,2013-05-01 10:51:00,
2013-05-01 05:56:00,58.9,57.5,29.83,ESE,121,0.0,0.0,95,0.00,,---,0.00,VWS V14.01,2013-05-01 10:56:00,
2013-05-01 06:01:00,59.2,58.1,29.83,ESE,121,0.0,0.0,96,0.00,,---,0.00,VWS V14.01,2013-05-01 11:01:00,
2013-05-01 06:06:00,59.9,58.8,29.83,ESE,121,0.0,0.0,96,0.00,,---,0.00,VWS V14.01,2013-05-01 11:06:00,
2013-05-01 06:11:00,60.2,59.1,29.83,ESE,121,0.0,0.0,96,0.00,,---,0.00,VWS V14.01,2013-05-01 11:11:00,
2013-05-01 06:16:00,60.5,59.4,29.83,ESE,121,0.0,0.0,96,0.00,,---,0.00,VWS V14.01,2013-05-01 11:16:00,
2013-05-01 06:21:00,60.9,59.8,29.83,ESE,119,0.0,0.0,96,0.00,,---,0.00,VWS V14.01,2013-05-01 11:21:00,
2013-05-01 06:26:00,60.7,59.3,29.83,ESE,121,0.0,0.0,95,0.00,,---,0.00,VWS V14.01,2013-05-01 11:26:00,
2013-05-01 06:31:00,60.7,59.3,29.83,ESE,119,0.0,0.0,95,0.00,,---,0.00,VWS V14.01,2013-05-01 11:31:00,
2013-05-01 06:36:00,60.9,59.5,29.83,ESE,121,0.0,0.0,95,0.00,,---,0.00,VWS V14.01,2013-05-01 11:36:00,
2013-05-01 06:41:00,61.0,59.9,29.83,ESE,119,0.0,0.0,96,0.00,,---,0.00,VWS V14.01,2013-05-01 11:41:00,
2013-05-01 06:46:00,60.5,59.4,29.83,ESE,119,0.0,0.0,96,0.00,,---,0.00,VWS V14.01,2013-05-01 11:46:00,
2013-05-01 06:51:00,60.2,58.8,29.84,ESE,121,0.0,0.0,95,0.00,,---,0.00,VWS V14.01,2013-05-01 11:51:00,
2013-05-01 06:56:00,59.9,58.5,29.84,ESE,121,0.0,0.0,95,0.00,,---,0.00,VWS V14.01,2013-05-01 11:56:00,
2013-05-01 07:01:00,60.1,58.7,29.84,ESE,119,0.0,0.0,95,0.00,,---,0.00,VWS V14.01,2013-05-01 12:01:00,
2013-05-01 07:06:00,60.1,59.0,29.84,ESE,121,0.0,0.0,96,0.00,,---,0.00,VWS V14.01,2013-05-01 12:06:00,
2013-05-01 07:11:00,59.6,58.5,29.84,ESE,121,0.0,0.0,96,0.00,,---,0.00,VWS V14.01,2013-05-01 12:11:00,
2013-05-01 07:16:00,59.6,58.2,29.84,ESE,119,0.0,0.0,95,0.00,,---,0.00,VWS V14.01,2013-05-01 12:16:00,
2013-05-01 07:21:00,59.5,58.1,29.84,ESE,119,0.0,0.0,95,0.00,,---,0.00,VWS V14.01,2013-05-01 12:21:00,
2013-05-01 07:26:00,59.3,57.9,29.84,ESE,121,0.0,0.0,95,0.00,,---,0.00,VWS V14.01,2013-05-01 12:26:00,
2013-05-01 07:31:00,59.6,58.2,29.84,ESE,121,0.0,0.0,95,0.00,,---,0.00,VWS V14.01,2013-05-01 12:31:00,
2013-05-01 07:36:00,59.9,58.8,29.84,ESE,121,0.0,0.0,96,0.00,,---,0.00,VWS V14.01,2013-05-01 12:36:00,
2013-05-01 07:41:00,60.2,59.1,29.84,ESE,121,0.0,0.0,96,0.00,,---,0.00,VWS V14.01,2013-05-01 12:41:00,
2013-05-01 07:46:00,60.5,59.4,29.84,ESE,119,0.0,0.0,96,0.00,,---,0.00,VWS V14.01,2013-05-01 12:46:00,
2013-05-01 07:51:00,60.4,59.3,29.85,ESE,119,0.0,0.0,96,0.00,,---,0.00,VWS V14.01,2013-05-01 12:51:00,
2013-05-01 07:56:00,60.1,58.7,29.85,ESE,121,0.0,0.0,95,0.00,,---,0.00,VWS V14.01,2013-05-01 12:56:00,
2013-05-01 08:01:00,60.4,59.3,29.85,ESE,121,0.0,0.0,96,0.00,,---,0.00,VWS V14.01,2013-05-01 13:01:00,
2013-05-01 08:06:00,61.2,60.0,29.85,ESE,121,0.0,0.0,96,0.00,,---,0.00,VWS V14.01,2013-05-01 13:06:00,
2013-05-01 08:11:00,61.6,60.5,29.85,ESE,119,0.0,0.0,96,0.00,,---,0.00,VWS V14.01,2013-05-01 13:11:00,
2013-05-01 08:16:00,62.3,61.2,29.85,ESE,119,0.0,0.0,96,0.00,,---,0.00,VWS V14.01,2013-05-01 13:16:00,
2013-05-01 08:21:00,62.7,61.5,29.85,ESE,119,0.0,0.0,96,0.00,,---,0.00,VWS V14.01,2013-05-01 13:21:00,
2013-05-01 08:26:00,63.2,62.0,29.85,ENE,73,0.0,0.0,96,0.00,,---,0.00,VWS V14.01,2013-05-01 13:26:00,
2013-05-01 08:31:00,63.9,62.7,29.85,ENE,60,0.0,0.0,96,0.00,,---,0.00,VWS V14.01,2013-05-01 13:31:00,
2013-05-01 08:36:00,64.3,63.1,29.85,ENE,57,3.0,3.0,96,0.00,,---,0.00,VWS V14.01,2013-05-01 13:36:00,
2013-05-01 08:41:00,64.3,62.5,29.85,ENE,66,1.0,2.0,94,0.00,,---,0.00,VWS V14.01,2013-05-01 13:41:00,
2013-05-01 08:46:00,64.7,62.9,29.85,ENE,66,2.0,2.0,94,0.00,,---,0.00,VWS V14.01,2013-05-01 13:46:00,
2013-05-01 08:51:00,65.3,63.8,29.84,ENE,66,0.0,0.0,95,0.00,,---,0.00,VWS V14.01,2013-05-01 13:51:00,
2013-05-01 08:56:00,66.1,64.3,29.85,ENE,66,0.0,0.0,94,0.00,,---,0.00,VWS V14.01,2013-05-01 13:56:00,
2013-05-01 09:01:00,66.9,64.5,29.85,ENE,74,5.0,6.0,92,0.00,,---,0.00,VWS V14.01,2013-05-01 14:01:00,
2013-05-01 09:06:00,66.9,63.6,29.85,ENE,73,2.0,6.0,89,0.00,,---,0.00,VWS V14.01,2013-05-01 14:06:00,
2013-05-01 09:11:00,67.3,63.6,29.85,ENE,71,3.0,6.0,88,0.00,,---,0.00,VWS V14.01,2013-05-01 14:11:00,
2013-05-01 09:16:00,67.6,63.9,29.85,ENE,63,5.0,6.0,88,0.00,,---,0.00,VWS V14.01,2013-05-01 14:16:00,
2013-05-01 09:21:00,67.8,63.8,29.86,NE,51,5.0,5.0,87,0.00,,---,0.00,VWS V14.01,2013-05-01 14:21:00,
2013-05-01 09:26:00,68.1,64.1,29.86,ENE,71,6.0,10.0,87,0.00,,---,0.00,VWS V14.01,2013-05-01 14:26:00,
2013-05-01 09:31:00,68.1,63.8,29.86,NE,40,6.0,6.0,86,0.00,,---,0.00,VWS V14.01,2013-05-01 14:31:00,
2013-05-01 09:36:00,68.4,64.1,29.86,East,80,5.0,8.0,86,0.00,,---,0.00,VWS V14.01,2013-05-01 14:36:00,
2013-05-01 09:41:00,68.4,63.7,29.86,ESE,102,2.0,3.0,85,0.00,,---,0.00,VWS V14.01,2013-05-01 14:41:00,
2013-05-01 09:46:00,68.4,64.1,29.86,NE,56,0.0,5.0,86,0.00,,---,0.00,VWS V14.01,2013-05-01 14:46:00,
2013-05-01 09:51:00,68.4,63.7,29.86,ENE,57,0.0,1.0,85,0.00,,---,0.00,VWS V14.01,2013-05-01 14:51:00,
2013-05-01 09:56:00,68.6,64.2,29.86,ENE,70,2.0,5.0,86,0.00,,---,0.00,VWS V14.01,2013-05-01 14:56:00,
2013-05-01 10:01:00,68.4,63.7,29.86,ENE,64,7.0,11.0,85,0.00,,---,0.00,VWS V14.01,2013-05-01 15:01:00,
2013-05-01 10:06:00,68.1,63.4,29.86,ENE,60,2.0,11.0,85,0.00,,---,0.00,VWS V14.01,2013-05-01 15:06:00,
2013-05-01 10:11:00,68.3,63.6,29.86,East,95,6.0,8.0,85,0.00,,---,0.00,VWS V14.01,2013-05-01 15:11:00,
2013-05-01 10:16:00,68.4,63.4,29.87,ENE,59,3.0,10.0,84,0.00,,---,0.00,VWS V14.01,2013-05-01 15:16:00,
2013-05-01 10:21:00,68.4,63.4,29.87,NE,42,8.0,10.0,84,0.00,,---,0.00,VWS V14.01,2013-05-01 15:21:00,
2013-05-01 10:26:00,69.1,63.7,29.87,East,92,5.0,12.0,83,0.00,,---,0.00,VWS V14.01,2013-05-01 15:26:00,
2013-05-01 10:31:00,69.9,64.5,29.86,East,84,5.0,7.0,83,0.00,,---,0.00,VWS V14.01,2013-05-01 15:31:00,
2013-05-01 10:36:00,70.9,64.8,29.86,ENE,59,5.0,10.0,81,0.00,,---,0.00,VWS V14.01,2013-05-01 15:36:00,
2013-05-01 10:41:00,71.3,64.1,29.87,ENE,63,7.0,14.0,78,0.00,,---,0.00,VWS V14.01,2013-05-01 15:41:00,
2013-05-01 10:46:00,71.5,64.3,29.87,ENE,71,8.0,14.0,78,0.00,,---,0.00,VWS V14.01,2013-05-01 15:46:00,
2013-05-01 10:51:00,71.8,64.6,29.87,ENE,74,2.0,12.0,78,0.00,,---,0.00,VWS V14.01,2013-05-01 15:51:00,
2013-05-01 10:56:00,72.0,64.8,29.87,NE,43,8.0,12.0,78,0.00,,---,0.00,VWS V14.01,2013-05-01 15:56:00,
2013-05-01 11:01:00,72.5,64.1,29.87,NE,53,2.0,5.0,75,0.00,,---,0.00,VWS V14.01,2013-05-01 16:01:00,
2013-05-01 11:06:00,73.2,64.4,29.88,NE,49,3.0,10.0,74,0.00,,---,0.00,VWS V14.01,2013-05-01 16:06:00,
2013-05-01 11:11:00,73.3,64.5,29.88,NE,44,8.0,8.0,74,0.00,,---,0.00,VWS V14.01,2013-05-01 16:11:00,
2013-05-01 11:16:00,73.9,64.3,29.88,NE,46,8.0,12.0,72,0.00,,---,0.00,VWS V14.01,2013-05-01 16:16:00,
2013-05-01 11:21:00,74.2,63.4,29.88,ENE,61,8.0,8.0,69,0.00,,---,0.00,VWS V14.01,2013-05-01 16:21:00,
2013-05-01 11:26:00,74.7,63.9,29.89,South,181,2.0,11.0,69,0.00,,---,0.00,VWS V14.01,2013-05-01 16:26:00,
2013-05-01 11:31:00,75.4,64.1,29.89,ENE,73,10.0,10.0,68,0.00,,---,0.00,VWS V14.01,2013-05-01 16:31:00,
2013-05-01 11:36:00,75.3,64.0,29.89,ENE,64,3.0,12.0,68,0.00,,---,0.00,VWS V14.01,2013-05-01 16:36:00,
2013-05-01 11:41:00,76.1,64.8,29.89,ENE,59,8.0,8.0,68,0.00,,---,0.00,VWS V14.01,2013-05-01 16:41:00,
2013-05-01 11:46:00,76.5,65.6,29.89,SSE,163,2.0,8.0,69,0.00,,---,0.00,VWS V14.01,2013-05-01 16:46:00,
2013-05-01 11:51:00,76.8,65.0,29.89,ENE,59,2.0,2.0,67,0.00,,---,0.00,VWS V14.01,2013-05-01 16:51:00,
2013-05-01 11:56:00,77.2,65.4,29.89,ENE,71,5.0,13.0,67,0.00,,---,0.00,VWS V14.01,2013-05-01 16:56:00,
2013-05-01 12:01:00,77.2,63.6,29.89,ENE,67,3.0,3.0,63,0.00,,---,0.00,VWS V14.01,2013-05-01 17:01:00,
2013-05-01 12:06:00,76.5,63.0,29.89,NE,44,2.0,12.0,63,0.00,,---,0.00,VWS V14.01,2013-05-01 17:06:00,
2013-05-01 12:11:00,76.7,62.2,29.89,NE,40,6.0,11.0,61,0.00,,---,0.00,VWS V14.01,2013-05-01 17:11:00,
2013-05-01 12:16:00,76.8,62.3,29.89,NE,56,5.0,11.0,61,0.00,,---,0.00,VWS V14.01,2013-05-01 17:16:00,
2013-05-01 12:21:00,76.7,63.2,29.89,NE,46,6.0,6.0,63,0.00,,---,0.00,VWS V14.01,2013-05-01 17:21:00,
2013-05-01 12:26:00,75.4,62.4,29.89,NNE,26,6.0,14.0,64,0.00,,---,0.00,VWS V14.01,2013-05-01 17:26:00,
2013-05-01 12:31:00,75.1,62.1,29.89,NE,56,6.0,11.0,64,0.00,,---,0.00,VWS V14.01,2013-05-01 17:31:00,
2013-05-01 12:36:00,74.9,63.2,29.89,NE,46,1.0,11.0,67,0.00,,---,0.00,VWS V14.01,2013-05-01 17:36:00,
2013-05-01 12:41:00,75.3,64.0,29.89,ENE,68,2.0,7.0,68,0.00,,---,0.00,VWS V14.01,2013-05-01 17:41:00,
2013-05-01 12:46:00,75.8,60.5,29.89,ENE,74,12.0,12.0,59,0.00,,---,0.00,VWS V14.01,2013-05-01 17:46:00,
2013-05-01 12:51:00,76.3,60.9,29.89,NE,49,14.0,14.0,59,0.00,,---,0.00,VWS V14.01,2013-05-01 17:51:00,
2013-05-01 12:56:00,76.0,60.7,29.89,NNE,27,6.0,14.0,59,0.00,,---,0.00,VWS V14.01,2013-05-01 17:56:00,
2013-05-01 13:01:00,75.8,61.9,29.90,NE,37,3.0,6.0,62,0.00,,---,0.00,VWS V14.01,2013-05-01 18:01:00,
2013-05-01 13:06:00,75.3,61.4,29.90,North,355,6.0,13.0,62,0.00,,---,0.00,VWS V14.01,2013-05-01 18:06:00,
2013-05-01 13:11:00,74.9,61.9,29.89,NE,39,7.0,7.0,64,0.00,,---,0.00,VWS V14.01,2013-05-01 18:11:00,
2013-05-01 13:16:00,74.2,61.2,29.90,NNW,347,8.0,14.0,64,0.00,,---,0.00,VWS V14.01,2013-05-01 18:16:00,
2013-05-01 13:21:00,74.4,62.3,29.89,ENE,68,6.0,8.0,66,0.00,,---,0.00,VWS V14.01,2013-05-01 18:21:00,
2013-05-01 13:26:00,74.6,62.5,29.89,NNE,32,7.0,13.0,66,0.00,,---,0.00,VWS V14.01,2013-05-01 18:26:00,
2013-05-01 13:31:00,74.4,62.3,29.89,ESE,108,5.0,8.0,66,0.00,,---,0.00,VWS V14.01,2013-05-01 18:31:00,
2013-05-01 13:36:00,74.6,62.9,29.89,NE,36,5.0,11.0,67,0.00,,---,0.00,VWS V14.01,2013-05-01 18:36:00,
2013-05-01 13:41:00,75.1,63.0,29.89,NNE,29,10.0,12.0,66,0.00,,---,0.00,VWS V14.01,2013-05-01 18:41:00,
2013-05-01 13:46:00,75.8,62.8,29.89,NE,40,12.0,12.0,64,0.00,,---,0.00,VWS V14.01,2013-05-01 18:46:00,
2013-05-01 13:51:00,76.0,62.0,29.89,ENE,70,3.0,12.0,62,0.00,,---,0.00,VWS V14.01,2013-05-01 18:51:00,
2013-05-01 13:56:00,76.5,62.1,29.89,NE,43,3.0,19.0,61,0.00,,---,0.00,VWS V14.01,2013-05-01 18:56:00,
2013-05-01 14:01:00,76.8,61.9,29.89,East,83,16.0,16.0,60,0.00,,---,0.00,VWS V14.01,2013-05-01 19:01:00,
2013-05-01 14:06:00,76.7,62.2,29.89,ENE,70,6.0,16.0,61,0.00,,---,0.00,VWS V14.01,2013-05-01 19:06:00,
2013-05-01 14:11:00,76.7,63.2,29.89,NE,44,11.0,17.0,63,0.00,,---,0.00,VWS V14.01,2013-05-01 19:11:00,
2013-05-01 14:16:00,76.3,61.9,29.89,East,88,3.0,17.0,61,0.00,,---,0.00,VWS V14.01,2013-05-01 19:16:00,
2013-05-01 14:21:00,76.1,62.2,29.89,North,9,3.0,3.0,62,0.00,,---,0.00,VWS V14.01,2013-05-01 19:21:00,
2013-05-01 14:26:00,76.0,62.5,29.89,NE,46,7.0,12.0,63,0.00,,---,0.00,VWS V14.01,2013-05-01 19:26:00,
2013-05-01 14:31:00,76.0,61.6,29.89,ENE,64,10.0,10.0,61,0.00,,---,0.00,VWS V14.01,2013-05-01 19:31:00,
2013-05-01 14:36:00,76.3,62.8,29.89,NE,44,8.0,13.0,63,0.00,,---,0.00,VWS V14.01,2013-05-01 19:36:00,
2013-05-01 14:41:00,76.3,62.3,29.89,North,11,11.0,12.0,62,0.00,,---,0.00,VWS V14.01,2013-05-01 19:41:00,
2013-05-01 14:46:00,76.7,62.7,29.89,NNE,22,12.0,12.0,62,0.00,,---,0.00,VWS V14.01,2013-05-01 19:46:00,
2013-05-01 14:51:00,76.5,62.1,29.88,NNE,22,10.0,14.0,61,0.00,,---,0.00,VWS V14.01,2013-05-01 19:51:00,
2013-05-01 14:56:00,76.5,63.4,29.88,NNE,30,5.0,16.0,64,0.00,,---,0.00,VWS V14.01,2013-05-01 19:56:00,
2013-05-01 15:01:00,76.1,62.2,29.88,NNE,12,7.0,10.0,62,0.00,,---,0.00,VWS V14.01,2013-05-01 20:01:00,
2013-05-01 15:06:00,76.1,62.2,29.88,ENE,67,5.0,12.0,62,0.00,,---,0.00,VWS V14.01,2013-05-01 20:06:00,
2013-05-01 15:11:00,76.8,62.3,29.88,ESE,104,7.0,11.0,61,0.00,,---,0.00,VWS V14.01,2013-05-01 20:11:00,
2013-05-01 15:16:00,77.2,61.3,29.88,North,2,8.0,16.0,58,0.00,,---,0.00,VWS V14.01,2013-05-01 20:16:00,
2013-05-01 15:21:00,77.4,61.5,29.88,NNE,19,10.0,18.0,58,0.00,,---,0.00,VWS V14.01,2013-05-01 20:21:00,
2013-05-01 15:26:00,76.3,62.3,29.88,North,359,7.0,18.0,62,0.00,,---,0.00,VWS V14.01,2013-05-01 20:26:00,
2013-05-01 15:31:00,75.4,62.4,29.88,NNE,15,8.0,11.0,64,0.00,,---,0.00,VWS V14.01,2013-05-01 20:31:00,
2013-05-01 15:36:00,76.3,63.2,29.88,NNE,18,8.0,19.0,64,0.00,,---,0.00,VWS V14.01,2013-05-01 20:36:00,
2013-05-01 15:41:00,76.3,61.4,29.88,NNE,16,8.0,8.0,60,0.00,,---,0.00,VWS V14.01,2013-05-01 20:41:00,
2013-05-01 15:46:00,77.0,62.1,29.88,North,9,16.0,22.0,60,0.00,,---,0.00,VWS V14.01,2013-05-01 20:46:00,
2013-05-01 15:51:00,76.8,61.4,29.88,NNW,345,6.0,6.0,59,0.00,,---,0.00,VWS V14.01,2013-05-01 20:51:00,
2013-05-01 15:56:00,77.9,62.4,29.88,East,85,14.0,14.0,59,0.00,,---,0.00,VWS V14.01,2013-05-01 20:56:00,
2013-05-01 16:01:00,76.8,62.3,29.88,NNE,15,7.0,8.0,61,0.00,,---,0.00,VWS V14.01,2013-05-01 21:01:00,
2013-05-01 16:06:00,76.0,62.5,29.88,NNE,18,13.0,13.0,63,0.00,,---,0.00,VWS V14.01,2013-05-01 21:06:00,
2013-05-01 16:11:00,76.5,62.1,29.88,NNW,335,6.0,12.0,61,0.00,,---,0.00,VWS V14.01,2013-05-01 21:11:00,
2013-05-01 16:16:00,76.0,62.0,29.88,ENE,64,8.0,16.0,62,0.00,,---,0.00,VWS V14.01,2013-05-01 21:16:00,
2013-05-01 16:21:00,75.3,62.7,29.89,NE,44,12.0,13.0,65,0.00,,---,0.00,VWS V14.01,2013-05-01 21:21:00,
2013-05-01 16:26:00,75.1,62.1,29.89,ENE,64,11.0,18.0,64,0.00,,---,0.00,VWS V14.01,2013-05-01 21:26:00,
2013-05-01 16:31:00,74.9,62.3,29.89,NNE,15,17.0,17.0,65,0.00,,---,0.00,VWS V14.01,2013-05-01 21:31:00,
2013-05-01 16:36:00,74.7,62.2,29.88,ENE,63,16.0,17.0,65,0.00,,---,0.00,VWS V14.01,2013-05-01 21:36:00,
2013-05-01 16:41:00,74.2,61.7,29.89,North,358,12.0,16.0,65,0.00,,---,0.00,VWS V14.01,2013-05-01 21:41:00,
2013-05-01 16:46:00,74.2,61.7,29.90,NNE,25,14.0,16.0,65,0.00,,---,0.00,VWS V14.01,2013-05-01 21:46:00,
2013-05-01 16:51:00,74.2,61.7,29.89,NNE,25,11.0,11.0,65,0.00,,---,0.00,VWS V14.01,2013-05-01 21:51:00,
2013-05-01 16:56:00,74.2,61.7,29.90,NE,36,7.0,11.0,65,0.00,,---,0.00,VWS V14.01,2013-05-01 21:56:00,
2013-05-01 17:01:00,72.1,59.7,29.90,NNE,19,11.0,11.0,65,0.00,,---,0.00,VWS V14.01,2013-05-01 22:01:00,
2013-05-01 17:06:00,72.1,59.7,29.89,NW,306,16.0,16.0,65,0.00,,---,0.00,VWS V14.01,2013-05-01 22:06:00,
2013-05-01 17:11:00,72.1,59.7,29.89,North,9,14.0,14.0,65,0.00,,---,0.00,VWS V14.01,2013-05-01 22:11:00,
2013-05-01 17:16:00,71.8,59.4,29.90,NNE,32,17.0,17.0,65,0.00,,---,0.00,VWS V14.01,2013-05-01 22:16:00,
2013-05-01 17:21:00,71.5,59.1,29.90,NNE,27,14.0,14.0,65,0.00,,---,0.00,VWS V14.01,2013-05-01 22:21:00,
2013-05-01 17:26:00,70.6,58.3,29.90,ENE,59,3.0,14.0,65,0.00,,---,0.00,VWS V14.01,2013-05-01 22:26:00,
2013-05-01 17:31:00,70.4,58.1,29.90,North,349,8.0,8.0,65,0.00,,---,0.00,VWS V14.01,2013-05-01 22:31:00,
2013-05-01 17:36:00,70.4,58.1,29.89,NNE,32,6.0,8.0,65,0.00,,---,0.00,VWS V14.01,2013-05-01 22:36:00,
2013-05-01 17:41:00,70.4,58.1,29.89,ENE,73,8.0,8.0,65,0.00,,---,0.00,VWS V14.01,2013-05-01 22:41:00,
2013-05-01 17:46:00,70.4,58.1,29.89,ENE,70,10.0,10.0,65,0.00,,---,0.00,VWS V14.01,2013-05-01 22:46:00,
2013-05-01 17:51:00,71.3,58.9,29.89,ENE,60,3.0,5.0,65,0.00,,---,0.00,VWS V14.01,2013-05-01 22:51:00,
2013-05-01 17:56:00,71.3,58.9,29.89,ENE,75,11.0,13.0,65,0.00,,---,0.00,VWS V14.01,2013-05-01 22:56:00,
2013-05-01 18:01:00,71.3,58.9,29.89,NNE,12,5.0,8.0,65,0.00,,---,0.00,VWS V14.01,2013-05-01 23:01:00,
2013-05-01 18:06:00,71.3,58.9,29.88,ENE,74,7.0,11.0,65,0.00,,---,0.00,VWS V14.01,2013-05-01 23:06:00,
2013-05-01 18:11:00,71.3,58.9,29.88,North,2,8.0,8.0,65,0.00,,---,0.00,VWS V14.01,2013-05-01 23:11:00,
2013-05-01 18:16:00,71.3,58.9,29.88,NNE,30,7.0,8.0,65,0.00,,---,0.00,VWS V14.01,2013-05-01 23:16:00,
2013-05-01 18:21:00,71.3,60.6,29.88,NNW,348,7.0,7.0,69,0.00,,---,0.00,VWS V14.01,2013-05-01 23:21:00,
2013-05-01 18:26:00,71.3,61.0,29.88,NE,37,11.0,11.0,70,0.00,,---,0.00,VWS V14.01,2013-05-01 23:26:00,
2013-05-01 18:31:00,71.1,60.8,29.89,North,8,6.0,8.0,70,0.00,,---,0.00,VWS V14.01,2013-05-01 23:31:00,
2013-05-01 18:36:00,71.1,60.8,29.89,NE,54,11.0,12.0,70,0.00,,---,0.00,VWS V14.01,2013-05-01 23:36:00,
2013-05-01 18:41:00,71.1,60.8,29.89,ENE,60,10.0,13.0,70,0.00,,---,0.00,VWS V14.01,2013-05-01 23:41:00,
2013-05-01 18:46:00,70.9,60.6,29.88,NE,37,6.0,13.0,70,0.00,,---,0.00,VWS V14.01,2013-05-01 23:46:00,
2013-05-01 18:51:00,70.9,60.6,29.88,ENE,75,5.0,8.0,70,0.00,,---,0.00,VWS V14.01,2013-05-01 23:51:00,
2013-05-01 18:56:00,70.8,60.5,29.89,NE,40,5.0,11.0,70,0.00,,---,0.00,VWS V14.01,2013-05-01 23:56:00,
2013-05-01 19:01:00,70.4,60.2,29.89,NE,47,5.0,11.0,70,0.00,,---,0.00,VWS V14.01,2013-05-02 00:01:00,
2013-05-01 19:06:00,70.4,60.2,29.89,ENE,68,3.0,11.0,70,0.00,,---,0.00,VWS V14.01,2013-05-02 00:06:00,
2013-05-01 19:11:00,70.3,60.1,29.90,NE,51,12.0,12.0,70,0.00,,---,0.00,VWS V14.01,2013-05-02 00:11:00,
2013-05-01 19:16:00,70.3,60.5,29.90,East,90,6.0,12.0,71,0.00,,---,0.00,VWS V14.01,2013-05-02 00:16:00,
2013-05-01 19:21:00,69.9,60.1,29.90,NNE,19,6.0,13.0,71,0.00,,---,0.00,VWS V14.01,2013-05-02 00:21:00,
2013-05-01 19:26:00,69.8,60.0,29.90,NNE,18,8.0,13.0,71,0.00,,---,0.00,VWS V14.01,2013-05-02 00:26:00,
2013-05-01 19:31:00,69.6,59.8,29.90,NE,37,5.0,10.0,71,0.00,,---,0.00,VWS V14.01,2013-05-02 00:31:00,
2013-05-01 19:36:00,69.4,59.6,29.91,NNE,26,5.0,14.0,71,0.00,,---,0.00,VWS V14.01,2013-05-02 00:36:00,
2013-05-01 19:41:00,69.3,59.5,29.91,East,88,6.0,6.0,71,0.00,,---,0.00,VWS V14.01,2013-05-02 00:41:00,
2013-05-01 19:46:00,69.3,59.9,29.91,ENE,71,1.0,7.0,72,0.00,,---,0.00,VWS V14.01,2013-05-02 00:46:00,
2013-05-01 19:51:00,69.1,60.1,29.91,NE,53,3.0,7.0,73,0.00,,---,0.00,VWS V14.01,2013-05-02 00:51:00,
2013-05-01 19:56:00,69.1,60.1,29.91,ENE,60,1.0,7.0,73,0.00,,---,0.00,VWS V14.01,2013-05-02 00:56:00,
2013-05-01 20:01:00,68.8,60.2,29.91,ENE,68,3.0,7.0,74,0.00,,---,0.00,VWS V14.01,2013-05-02 01:01:00,
2013-05-01 20:06:00,68.8,60.2,29.92,NE,51,2.0,7.0,74,0.00,,---,0.00,VWS V14.01,2013-05-02 01:06:00,
2013-05-01 20:11:00,68.8,60.2,29.92,East,85,7.0,8.0,74,0.00,,---,0.00,VWS V14.01,2013-05-02 01:11:00,
2013-05-01 20:16:00,68.8,60.2,29.92,NNE,30,3.0,8.0,74,0.00,,---,0.00,VWS V14.01,2013-05-02 01:16:00,
2013-05-01 20:21:00,68.6,60.0,29.93,ENE,73,7.0,7.0,74,0.00,,---,0.00,VWS V14.01,2013-05-02 01:21:00,
2013-05-01 20:26:00,68.6,60.0,29.93,NNE,15,6.0,10.0,74,0.00,,---,0.00,VWS V14.01,2013-05-02 01:26:00,
2013-05-01 20:31:00,68.6,60.0,29.93,NNE,30,6.0,8.0,74,0.00,,---,0.00,VWS V14.01,2013-05-02 01:31:00,
2013-05-01 20:36:00,68.4,59.8,29.93,NE,39,3.0,8.0,74,0.00,,---,0.00,VWS V14.01,2013-05-02 01:36:00,
2013-05-01 20:41:00,68.4,60.2,29.93,East,80,7.0,7.0,75,0.00,,---,0.00,VWS V14.01,2013-05-02 01:41:00,
2013-05-01 20:46:00,68.4,60.2,29.94,NE,37,5.0,7.0,75,0.00,,---,0.00,VWS V14.01,2013-05-02 01:46:00,
2013-05-01 20:51:00,68.4,60.2,29.94,NE,54,3.0,5.0,75,0.00,,---,0.00,VWS V14.01,2013-05-02 01:51:00,
2013-05-01 20:56:00,68.4,60.5,29.94,NNE,19,5.0,7.0,76,0.00,,---,0.00,VWS V14.01,2013-05-02 01:56:00,
2013-05-01 21:01:00,68.4,60.5,29.94,NE,35,6.0,8.0,76,0.00,,---,0.00,VWS V14.01,2013-05-02 02:01:00,
2013-05-01 21:06:00,68.3,60.5,29.94,NE,37,2.0,8.0,76,0.00,,---,0.00,VWS V14.01,2013-05-02 02:06:00,
2013-05-01 21:11:00,68.3,60.5,29.94,NE,39,2.0,6.0,76,0.00,,---,0.00,VWS V14.01,2013-05-02 02:11:00,
2013-05-01 21:16:00,68.3,60.5,29.94,ENE,71,3.0,6.0,76,0.00,,---,0.00,VWS V14.01,2013-05-02 02:16:00,
2013-05-01 21:21:00,68.3,60.8,29.94,NE,36,3.0,7.0,77,0.00,,---,0.00,VWS V14.01,2013-05-02 02:21:00,
2013-05-01 21:26:00,68.3,60.8,29.95,NNE,23,2.0,10.0,77,0.00,,---,0.00,VWS V14.01,2013-05-02 02:26:00,
2013-05-01 21:31:00,68.1,60.6,29.95,North,2,2.0,6.0,77,0.00,,---,0.00,VWS V14.01,2013-05-02 02:31:00,
2013-05-01 21:36:00,68.1,60.6,29.95,NNE,25,5.0,7.0,77,0.00,,---,0.00,VWS V14.01,2013-05-02 02:36:00,
2013-05-01 21:41:00,68.1,60.6,29.96,North,358,3.0,5.0,77,0.00,,---,0.00,VWS V14.01,2013-05-02 02:41:00,
2013-05-01 21:46:00,68.1,60.6,29.96,North,3,2.0,5.0,77,0.00,,---,0.00,VWS V14.01,2013-05-02 02:46:00,
2013-05-01 21:51:00,68.1,60.6,29.96,North,3,0.0,0.0,77,0.00,,---,0.00,VWS V14.01,2013-05-02 02:51:00,
2013-05-01 21:56:00,68.1,60.6,29.96,North,3,1.0,1.0,77,0.00,,---,0.00,VWS V14.01,2013-05-02 02:56:00,
2013-05-01 22:01:00,68.1,61.0,29.96,North,3,2.0,3.0,78,0.00,,---,0.00,VWS V14.01,2013-05-02 03:01:00,
2013-05-01 22:06:00,68.1,61.0,29.96,North,3,2.0,3.0,78,0.00,,---,0.00,VWS V14.01,2013-05-02 03:06:00,
2013-05-01 22:11:00,68.1,61.0,29.97,NNW,332,3.0,3.0,78,0.00,,---,0.00,VWS V14.01,2013-05-02 03:11:00,
2013-05-01 22:16:00,68.1,61.0,29.96,North,2,2.0,3.0,78,0.00,,---,0.00,VWS V14.01,2013-05-02 03:16:00,
2013-05-01 22:21:00,68.1,61.0,29.96,North,2,0.0,3.0,78,0.00,,---,0.00,VWS V14.01,2013-05-02 03:21:00,
2013-05-01 22:26:00,68.1,61.0,29.97,North,2,0.0,3.0,78,0.00,,---,0.00,VWS V14.01,2013-05-02 03:26:00,
2013-05-01 22:31:00,67.9,60.8,29.97,North,2,5.0,5.0,78,0.00,,---,0.00,VWS V14.01,2013-05-02 03:31:00,
2013-05-01 22:36:00,67.8,61.1,29.97,North,3,0.0,5.0,79,0.00,,---,0.00,VWS V14.01,2013-05-02 03:36:00,
2013-05-01 22:41:00,67.8,61.1,29.96,North,5,1.0,2.0,79,0.00,,---,0.00,VWS V14.01,2013-05-02 03:41:00,
2013-05-01 22:46:00,67.6,60.9,29.96,NNE,16,1.0,6.0,79,0.00,,---,0.00,VWS V14.01,2013-05-02 03:46:00,
2013-05-01 22:51:00,67.6,60.9,29.95,NNE,16,3.0,3.0,79,0.00,,---,0.00,VWS V14.01,2013-05-02 03:51:00,
2013-05-01 22:56:00,67.4,60.7,29.95,North,358,3.0,6.0,79,0.00,,---,0.00,VWS V14.01,2013-05-02 03:56:00,
2013-05-01 23:01:00,67.3,60.9,29.95,North,358,0.0,0.0,80,0.00,,---,0.00,VWS V14.01,2013-05-02 04:01:00,
2013-05-01 23:06:00,67.3,60.9,29.95,North,358,1.0,3.0,80,0.00,,---,0.00,VWS V14.01,2013-05-02 04:06:00,
2013-05-01 23:11:00,67.3,60.9,29.95,North,358,2.0,3.0,80,0.00,,---,0.00,VWS V14.01,2013-05-02 04:11:00,
2013-05-01 23:16:00,67.1,60.7,29.95,NNE,26,3.0,6.0,80,0.00,,---,0.00,VWS V14.01,2013-05-02 04:16:00,
2013-05-01 23:21:00,67.1,60.7,29.94,NNE,25,6.0,6.0,80,0.00,,---,0.00,VWS V14.01,2013-05-02 04:21:00,
2013-05-01 23:26:00,67.1,60.7,29.94,NNE,33,6.0,7.0,80,0.00,,---,0.00,VWS V14.01,2013-05-02 04:26:00,
2013-05-01 23:31:00,67.1,60.7,29.94,NE,44,5.0,5.0,80,0.00,,---,0.00,VWS V14.01,2013-05-02 04:31:00,
2013-05-01 23:36:00,67.1,60.7,29.94,North,358,1.0,7.0,80,0.00,,---,0.00,VWS V14.01,2013-05-02 04:36:00,
2013-05-01 23:41:00,66.9,60.5,29.94,North,1,3.0,3.0,80,0.00,,---,0.00,VWS V14.01,2013-05-02 04:41:00,
2013-05-01 23:46:00,66.9,60.5,29.93,NNE,20,3.0,7.0,80,0.00,,---,0.00,VWS V14.01,2013-05-02 04:46:00,
2013-05-01 23:51:00,66.8,60.8,29.93,North,8,5.0,6.0,81,0.00,,---,0.00,VWS V14.01,2013-05-02 04:51:00,
2013-05-01 23:56:00,66.8,60.8,29.93,NNE,19,2.0,6.0,81,0.00,,---,0.00,VWS V14.01,2013-05-02 04:56:00,